sensor_id;sensor_type;location;lat;lon;timestamp;P1;durP1;ratioP1;P2;durP2;ratioP2
8397;SDS011;4236;54.504;9.588;2023-09-19T00:00:38;26.77;;;25.30;;
8397;SDS011;4236;54.504;9.588;2023-09-19T00:03:07;27.97;;;26.57;;
8397;SDS011;4236;54.504;9.588;2023-09-19T00:05:36;29.03;;;27.27;;
8397;SDS011;4236;54.504;9.588;2023-09-19T00:08:05;29.53;;;28.03;;
8397;SDS011;4236;54.504;9.588;2023-09-19T00:10:33;31.47;;;29.60;;
8397;SDS011;4236;54.504;9.588;2023-09-19T00:13:02;33.60;;;31.67;;
8397;SDS011;4236;54.504;9.588;2023-09-19T00:15:37;32.97;;;31.37;;
8397;SDS011;4236;54.504;9.588;2023-09-19T00:18:07;32.53;;;31.00;;
8397;SDS011;4236;54.504;9.588;2023-09-19T00:20:35;32.90;;;31.10;;
8397;SDS011;4236;54.504;9.588;2023-09-19T00:23:05;33.93;;;32.53;;
8397;SDS011;4236;54.504;9.588;2023-09-19T00:25:34;31.83;;;30.53;;
8397;SDS011;4236;54.504;9.588;2023-09-19T00:28:04;31.53;;;29.93;;
8397;SDS011;4236;54.504;9.588;2023-09-19T00:30:33;30.63;;;29.20;;
8397;SDS011;4236;54.504;9.588;2023-09-19T00:33:03;30.10;;;28.60;;
8397;SDS011;4236;54.504;9.588;2023-09-19T00:35:32;31.90;;;30.27;;
8397;SDS011;4236;54.504;9.588;2023-09-19T00:38:00;33.60;;;32.10;;
8397;SDS011;4236;54.504;9.588;2023-09-19T00:40:29;34.77;;;32.83;;
8397;SDS011;4236;54.504;9.588;2023-09-19T00:42:57;35.50;;;33.50;;
8397;SDS011;4236;54.504;9.588;2023-09-19T00:45:26;35.13;;;32.93;;
8397;SDS011;4236;54.504;9.588;2023-09-19T00:47:55;37.57;;;34.90;;
8397;SDS011;4236;54.504;9.588;2023-09-19T00:50:25;35.97;;;33.60;;
8397;SDS011;4236;54.504;9.588;2023-09-19T00:52:55;36.77;;;34.50;;
8397;SDS011;4236;54.504;9.588;2023-09-19T00:55:23;37.67;;;34.77;;
8397;SDS011;4236;54.504;9.588;2023-09-19T00:57:51;36.43;;;34.13;;
8397;SDS011;4236;54.504;9.588;2023-09-19T01:00:20;39.33;;;36.60;;
8397;SDS011;4236;54.504;9.588;2023-09-19T01:02:49;38.00;;;35.03;;
8397;SDS011;4236;54.504;9.588;2023-09-19T01:05:17;41.63;;;38.47;;
8397;SDS011;4236;54.504;9.588;2023-09-19T01:07:46;43.67;;;40.90;;
8397;SDS011;4236;54.504;9.588;2023-09-19T01:10:16;41.70;;;38.97;;
8397;SDS011;4236;54.504;9.588;2023-09-19T01:12:48;36.20;;;34.30;;
8397;SDS011;4236;54.504;9.588;2023-09-19T01:15:26;37.60;;;34.77;;
8397;SDS011;4236;54.504;9.588;2023-09-19T01:18:01;35.17;;;33.20;;
8397;SDS011;4236;54.504;9.588;2023-09-19T01:20:39;31.97;;;30.00;;
8397;SDS011;4236;54.504;9.588;2023-09-19T01:23:17;33.23;;;30.93;;
8397;SDS011;4236;54.504;9.588;2023-09-19T01:26:07;28.73;;;26.60;;
8397;SDS011;4236;54.504;9.588;2023-09-19T01:28:51;32.10;;;29.87;;
8397;SDS011;4236;54.504;9.588;2023-09-19T01:31:23;32.20;;;29.80;;
8397;SDS011;4236;54.504;9.588;2023-09-19T01:33:57;28.57;;;26.47;;
8397;SDS011;4236;54.504;9.588;2023-09-19T01:36:27;29.03;;;27.13;;
8397;SDS011;4236;54.504;9.588;2023-09-19T01:38:57;30.77;;;28.57;;
8397;SDS011;4236;54.504;9.588;2023-09-19T01:41:35;30.57;;;28.40;;
8397;SDS011;4236;54.504;9.588;2023-09-19T01:44:13;31.60;;;29.50;;
8397;SDS011;4236;54.504;9.588;2023-09-19T01:46:48;30.37;;;28.60;;
8397;SDS011;4236;54.504;9.588;2023-09-19T01:49:18;31.20;;;29.00;;
8397;SDS011;4236;54.504;9.588;2023-09-19T01:51:56;31.57;;;29.30;;
8397;SDS011;4236;54.504;9.588;2023-09-19T01:54:33;31.00;;;28.83;;
8397;SDS011;4236;54.504;9.588;2023-09-19T01:57:07;35.47;;;32.87;;
8397;SDS011;4236;54.504;9.588;2023-09-19T01:59:43;32.13;;;30.20;;
8397;SDS011;4236;54.504;9.588;2023-09-19T02:02:17;36.43;;;33.17;;
8397;SDS011;4236;54.504;9.588;2023-09-19T02:04:47;36.50;;;34.20;;
8397;SDS011;4236;54.504;9.588;2023-09-19T02:07:16;37.83;;;35.07;;
8397;SDS011;4236;54.504;9.588;2023-09-19T02:09:44;38.67;;;36.00;;
8397;SDS011;4236;54.504;9.588;2023-09-19T02:12:14;39.63;;;36.77;;
8397;SDS011;4236;54.504;9.588;2023-09-19T02:14:42;36.53;;;34.50;;
8397;SDS011;4236;54.504;9.588;2023-09-19T02:17:09;37.83;;;35.70;;
8397;SDS011;4236;54.504;9.588;2023-09-19T02:19:40;36.77;;;34.90;;
8397;SDS011;4236;54.504;9.588;2023-09-19T02:22:08;36.70;;;34.30;;
8397;SDS011;4236;54.504;9.588;2023-09-19T02:24:36;38.50;;;36.17;;
8397;SDS011;4236;54.504;9.588;2023-09-19T02:27:05;35.97;;;33.90;;
8397;SDS011;4236;54.504;9.588;2023-09-19T02:29:33;36.40;;;34.50;;
8397;SDS011;4236;54.504;9.588;2023-09-19T02:32:01;34.30;;;32.47;;
8397;SDS011;4236;54.504;9.588;2023-09-19T02:34:30;32.30;;;30.57;;
8397;SDS011;4236;54.504;9.588;2023-09-19T02:37:00;35.10;;;32.70;;
8397;SDS011;4236;54.504;9.588;2023-09-19T02:39:28;34.13;;;31.57;;
8397;SDS011;4236;54.504;9.588;2023-09-19T02:41:55;32.43;;;30.30;;
8397;SDS011;4236;54.504;9.588;2023-09-19T02:44:23;34.30;;;32.23;;
8397;SDS011;4236;54.504;9.588;2023-09-19T02:46:51;31.57;;;29.17;;
8397;SDS011;4236;54.504;9.588;2023-09-19T02:49:19;28.43;;;27.00;;
8397;SDS011;4236;54.504;9.588;2023-09-19T02:51:46;27.27;;;25.77;;
8397;SDS011;4236;54.504;9.588;2023-09-19T02:54:15;27.57;;;25.67;;
8397;SDS011;4236;54.504;9.588;2023-09-19T02:56:43;26.37;;;25.10;;
8397;SDS011;4236;54.504;9.588;2023-09-19T02:59:11;40.67;;;36.97;;
8397;SDS011;4236;54.504;9.588;2023-09-19T03:01:39;42.60;;;38.80;;
8397;SDS011;4236;54.504;9.588;2023-09-19T03:04:07;32.57;;;30.83;;
8397;SDS011;4236;54.504;9.588;2023-09-19T03:06:37;30.37;;;28.37;;
8397;SDS011;4236;54.504;9.588;2023-09-19T03:09:06;30.20;;;28.10;;
8397;SDS011;4236;54.504;9.588;2023-09-19T03:11:39;32.00;;;29.53;;
8397;SDS011;4236;54.504;9.588;2023-09-19T03:14:08;30.13;;;28.00;;
8397;SDS011;4236;54.504;9.588;2023-09-19T03:16:37;32.03;;;29.80;;
8397;SDS011;4236;54.504;9.588;2023-09-19T03:19:05;31.13;;;29.13;;
8397;SDS011;4236;54.504;9.588;2023-09-19T03:21:33;30.80;;;28.90;;
8397;SDS011;4236;54.504;9.588;2023-09-19T03:24:02;32.33;;;29.83;;
8397;SDS011;4236;54.504;9.588;2023-09-19T03:26:31;33.37;;;31.20;;
8397;SDS011;4236;54.504;9.588;2023-09-19T03:29:00;35.10;;;32.90;;
8397;SDS011;4236;54.504;9.588;2023-09-19T03:31:32;36.43;;;34.00;;
8397;SDS011;4236;54.504;9.588;2023-09-19T03:34:03;37.53;;;35.40;;
8397;SDS011;4236;54.504;9.588;2023-09-19T03:36:31;41.00;;;38.40;;
8397;SDS011;4236;54.504;9.588;2023-09-19T03:38:59;43.33;;;39.80;;
8397;SDS011;4236;54.504;9.588;2023-09-19T03:41:27;44.80;;;41.77;;
8397;SDS011;4236;54.504;9.588;2023-09-19T03:43:54;46.13;;;42.83;;
8397;SDS011;4236;54.504;9.588;2023-09-19T03:46:23;45.90;;;43.20;;
8397;SDS011;4236;54.504;9.588;2023-09-19T03:48:51;49.07;;;46.10;;
8397;SDS011;4236;54.504;9.588;2023-09-19T03:51:19;49.13;;;45.77;;
8397;SDS011;4236;54.504;9.588;2023-09-19T03:53:46;50.50;;;46.73;;
8397;SDS011;4236;54.504;9.588;2023-09-19T03:56:15;53.07;;;49.83;;
8397;SDS011;4236;54.504;9.588;2023-09-19T03:58:43;49.30;;;45.90;;
8397;SDS011;4236;54.504;9.588;2023-09-19T04:01:11;48.90;;;45.27;;
8397;SDS011;4236;54.504;9.588;2023-09-19T04:03:41;48.63;;;45.80;;
8397;SDS011;4236;54.504;9.588;2023-09-19T04:06:14;52.07;;;48.20;;
8397;SDS011;4236;54.504;9.588;2023-09-19T04:08:42;49.33;;;46.67;;
8397;SDS011;4236;54.504;9.588;2023-09-19T04:11:11;53.27;;;49.83;;
8397;SDS011;4236;54.504;9.588;2023-09-19T04:13:39;49.80;;;46.30;;
8397;SDS011;4236;54.504;9.588;2023-09-19T04:16:07;53.57;;;50.17;;
8397;SDS011;4236;54.504;9.588;2023-09-19T04:18:35;54.00;;;50.63;;
8397;SDS011;4236;54.504;9.588;2023-09-19T04:21:07;56.67;;;53.40;;
8397;SDS011;4236;54.504;9.588;2023-09-19T04:23:35;53.40;;;49.93;;
8397;SDS011;4236;54.504;9.588;2023-09-19T04:26:02;55.70;;;52.20;;
8397;SDS011;4236;54.504;9.588;2023-09-19T04:28:31;51.47;;;48.77;;
8397;SDS011;4236;54.504;9.588;2023-09-19T04:31:00;52.70;;;49.43;;
8397;SDS011;4236;54.504;9.588;2023-09-19T04:33:28;55.10;;;51.40;;
8397;SDS011;4236;54.504;9.588;2023-09-19T04:35:56;54.13;;;50.60;;
8397;SDS011;4236;54.504;9.588;2023-09-19T04:38:34;52.50;;;49.80;;
8397;SDS011;4236;54.504;9.588;2023-09-19T04:41:02;54.50;;;51.60;;
8397;SDS011;4236;54.504;9.588;2023-09-19T04:43:30;57.47;;;53.70;;
8397;SDS011;4236;54.504;9.588;2023-09-19T04:45:58;56.60;;;53.53;;
8397;SDS011;4236;54.504;9.588;2023-09-19T04:48:26;58.17;;;54.90;;
8397;SDS011;4236;54.504;9.588;2023-09-19T04:50:55;54.17;;;51.00;;
8397;SDS011;4236;54.504;9.588;2023-09-19T04:53:23;52.87;;;49.50;;
8397;SDS011;4236;54.504;9.588;2023-09-19T04:55:52;50.33;;;47.87;;
8397;SDS011;4236;54.504;9.588;2023-09-19T04:58:22;51.37;;;48.80;;
8397;SDS011;4236;54.504;9.588;2023-09-19T05:00:49;50.20;;;47.50;;
8397;SDS011;4236;54.504;9.588;2023-09-19T05:03:18;48.70;;;46.40;;
8397;SDS011;4236;54.504;9.588;2023-09-19T05:05:46;50.67;;;47.20;;
8397;SDS011;4236;54.504;9.588;2023-09-19T05:08:14;45.57;;;42.70;;
8397;SDS011;4236;54.504;9.588;2023-09-19T05:10:42;42.17;;;39.77;;
8397;SDS011;4236;54.504;9.588;2023-09-19T05:13:11;41.93;;;39.03;;
8397;SDS011;4236;54.504;9.588;2023-09-19T05:15:39;39.37;;;37.07;;
8397;SDS011;4236;54.504;9.588;2023-09-19T05:18:06;36.03;;;33.90;;
8397;SDS011;4236;54.504;9.588;2023-09-19T05:20:34;37.80;;;36.10;;
8397;SDS011;4236;54.504;9.588;2023-09-19T05:23:04;34.00;;;32.30;;
8397;SDS011;4236;54.504;9.588;2023-09-19T05:25:36;36.27;;;33.70;;
8397;SDS011;4236;54.504;9.588;2023-09-19T05:28:05;33.23;;;31.33;;
8397;SDS011;4236;54.504;9.588;2023-09-19T05:30:35;32.43;;;30.50;;
8397;SDS011;4236;54.504;9.588;2023-09-19T05:33:05;31.30;;;29.40;;
8397;SDS011;4236;54.504;9.588;2023-09-19T05:35:33;30.03;;;28.40;;
8397;SDS011;4236;54.504;9.588;2023-09-19T05:38:03;29.80;;;28.50;;
8397;SDS011;4236;54.504;9.588;2023-09-19T05:40:31;31.10;;;29.30;;
8397;SDS011;4236;54.504;9.588;2023-09-19T05:42:59;30.97;;;29.47;;
8397;SDS011;4236;54.504;9.588;2023-09-19T05:45:27;32.43;;;30.77;;
8397;SDS011;4236;54.504;9.588;2023-09-19T05:47:56;31.53;;;29.50;;
8397;SDS011;4236;54.504;9.588;2023-09-19T05:50:35;33.83;;;32.13;;
8397;SDS011;4236;54.504;9.588;2023-09-19T05:53:03;31.20;;;29.43;;
8397;SDS011;4236;54.504;9.588;2023-09-19T05:55:31;31.27;;;29.40;;
8397;SDS011;4236;54.504;9.588;2023-09-19T05:57:59;32.67;;;30.90;;
8397;SDS011;4236;54.504;9.588;2023-09-19T06:00:29;34.10;;;32.13;;
8397;SDS011;4236;54.504;9.588;2023-09-19T06:02:59;37.03;;;34.47;;
8397;SDS011;4236;54.504;9.588;2023-09-19T06:05:27;36.23;;;33.60;;
8397;SDS011;4236;54.504;9.588;2023-09-19T06:07:56;34.50;;;31.77;;
8397;SDS011;4236;54.504;9.588;2023-09-19T06:10:26;33.63;;;32.00;;
8397;SDS011;4236;54.504;9.588;2023-09-19T06:12:55;34.10;;;32.30;;
8397;SDS011;4236;54.504;9.588;2023-09-19T06:15:24;33.33;;;31.80;;
8397;SDS011;4236;54.504;9.588;2023-09-19T06:17:53;35.93;;;33.90;;
8397;SDS011;4236;54.504;9.588;2023-09-19T06:20:25;34.20;;;32.47;;
8397;SDS011;4236;54.504;9.588;2023-09-19T06:22:53;32.43;;;30.83;;
8397;SDS011;4236;54.504;9.588;2023-09-19T06:25:21;34.97;;;33.27;;
8397;SDS011;4236;54.504;9.588;2023-09-19T06:27:50;35.47;;;33.50;;
8397;SDS011;4236;54.504;9.588;2023-09-19T06:30:20;34.53;;;32.53;;
8397;SDS011;4236;54.504;9.588;2023-09-19T06:32:49;35.90;;;33.83;;
8397;SDS011;4236;54.504;9.588;2023-09-19T06:35:22;35.73;;;34.13;;
8397;SDS011;4236;54.504;9.588;2023-09-19T06:37:53;31.77;;;29.77;;
8397;SDS011;4236;54.504;9.588;2023-09-19T06:40:24;31.70;;;30.10;;
8397;SDS011;4236;54.504;9.588;2023-09-19T06:42:52;35.50;;;33.30;;
8397;SDS011;4236;54.504;9.588;2023-09-19T06:45:22;38.07;;;36.00;;
8397;SDS011;4236;54.504;9.588;2023-09-19T06:47:53;40.53;;;38.20;;
8397;SDS011;4236;54.504;9.588;2023-09-19T06:50:25;47.33;;;44.83;;
8397;SDS011;4236;54.504;9.588;2023-09-19T06:52:55;49.00;;;46.20;;
8397;SDS011;4236;54.504;9.588;2023-09-19T06:55:24;44.63;;;42.43;;
8397;SDS011;4236;54.504;9.588;2023-09-19T06:57:55;47.40;;;44.50;;
8397;SDS011;4236;54.504;9.588;2023-09-19T07:00:22;45.20;;;42.33;;
8397;SDS011;4236;54.504;9.588;2023-09-19T07:02:57;42.90;;;39.93;;
8397;SDS011;4236;54.504;9.588;2023-09-19T07:05:27;39.83;;;37.30;;
8397;SDS011;4236;54.504;9.588;2023-09-19T07:07:56;37.87;;;35.57;;
8397;SDS011;4236;54.504;9.588;2023-09-19T07:10:25;32.83;;;31.10;;
8397;SDS011;4236;54.504;9.588;2023-09-19T07:12:54;33.53;;;31.40;;
8397;SDS011;4236;54.504;9.588;2023-09-19T07:15:23;35.83;;;33.57;;
8397;SDS011;4236;54.504;9.588;2023-09-19T07:17:51;30.77;;;29.03;;
8397;SDS011;4236;54.504;9.588;2023-09-19T07:20:20;34.47;;;31.60;;
8397;SDS011;4236;54.504;9.588;2023-09-19T07:22:48;30.67;;;28.80;;
8397;SDS011;4236;54.504;9.588;2023-09-19T07:25:18;33.67;;;31.63;;
8397;SDS011;4236;54.504;9.588;2023-09-19T07:27:46;33.27;;;31.20;;
8397;SDS011;4236;54.504;9.588;2023-09-19T07:30:14;33.37;;;31.30;;
8397;SDS011;4236;54.504;9.588;2023-09-19T07:32:42;32.17;;;29.37;;
8397;SDS011;4236;54.504;9.588;2023-09-19T07:35:10;34.50;;;31.97;;
8397;SDS011;4236;54.504;9.588;2023-09-19T07:37:38;31.77;;;29.47;;
8397;SDS011;4236;54.504;9.588;2023-09-19T07:40:06;30.30;;;28.60;;
8397;SDS011;4236;54.504;9.588;2023-09-19T07:42:37;31.97;;;30.13;;
8397;SDS011;4236;54.504;9.588;2023-09-19T07:45:07;31.20;;;28.97;;
8397;SDS011;4236;54.504;9.588;2023-09-19T07:47:35;29.63;;;27.50;;
8397;SDS011;4236;54.504;9.588;2023-09-19T07:50:03;31.90;;;29.67;;
8397;SDS011;4236;54.504;9.588;2023-09-19T07:52:34;33.67;;;31.17;;
8397;SDS011;4236;54.504;9.588;2023-09-19T07:55:01;33.17;;;31.23;;
8397;SDS011;4236;54.504;9.588;2023-09-19T07:57:36;33.77;;;31.37;;
8397;SDS011;4236;54.504;9.588;2023-09-19T08:00:04;34.70;;;32.27;;
8397;SDS011;4236;54.504;9.588;2023-09-19T08:02:34;32.93;;;30.77;;
8397;SDS011;4236;54.504;9.588;2023-09-19T08:05:03;31.97;;;29.60;;
8397;SDS011;4236;54.504;9.588;2023-09-19T08:07:33;32.80;;;30.83;;
8397;SDS011;4236;54.504;9.588;2023-09-19T08:10:02;34.77;;;31.97;;
8397;SDS011;4236;54.504;9.588;2023-09-19T08:12:31;33.53;;;31.20;;
8397;SDS011;4236;54.504;9.588;2023-09-19T08:15:00;35.07;;;32.57;;
8397;SDS011;4236;54.504;9.588;2023-09-19T08:17:27;35.27;;;33.00;;
8397;SDS011;4236;54.504;9.588;2023-09-19T08:19:56;33.97;;;31.70;;
8397;SDS011;4236;54.504;9.588;2023-09-19T08:22:23;33.47;;;31.03;;
8397;SDS011;4236;54.504;9.588;2023-09-19T08:24:51;35.80;;;33.40;;
8397;SDS011;4236;54.504;9.588;2023-09-19T08:27:19;37.43;;;35.03;;
8397;SDS011;4236;54.504;9.588;2023-09-19T08:29:47;36.20;;;33.90;;
8397;SDS011;4236;54.504;9.588;2023-09-19T08:32:17;36.30;;;33.20;;
8397;SDS011;4236;54.504;9.588;2023-09-19T08:34:50;31.83;;;30.13;;
8397;SDS011;4236;54.504;9.588;2023-09-19T08:37:18;30.13;;;28.30;;
8397;SDS011;4236;54.504;9.588;2023-09-19T08:39:45;32.83;;;30.50;;
8397;SDS011;4236;54.504;9.588;2023-09-19T08:42:13;28.53;;;26.60;;
8397;SDS011;4236;54.504;9.588;2023-09-19T08:44:43;30.27;;;28.23;;
8397;SDS011;4236;54.504;9.588;2023-09-19T08:47:11;28.23;;;26.63;;
8397;SDS011;4236;54.504;9.588;2023-09-19T08:49:48;30.07;;;27.77;;
8397;SDS011;4236;54.504;9.588;2023-09-19T08:52:27;28.63;;;27.03;;
8397;SDS011;4236;54.504;9.588;2023-09-19T08:55:01;28.13;;;26.50;;
8397;SDS011;4236;54.504;9.588;2023-09-19T08:57:31;27.03;;;25.07;;
8397;SDS011;4236;54.504;9.588;2023-09-19T09:00:02;28.60;;;26.47;;
8397;SDS011;4236;54.504;9.588;2023-09-19T09:02:32;26.90;;;25.00;;
8397;SDS011;4236;54.504;9.588;2023-09-19T09:05:02;27.67;;;25.57;;
8397;SDS011;4236;54.504;9.588;2023-09-19T09:07:33;27.13;;;25.63;;
8397;SDS011;4236;54.504;9.588;2023-09-19T09:10:02;27.40;;;25.23;;
8397;SDS011;4236;54.504;9.588;2023-09-19T09:12:30;28.73;;;26.30;;
8397;SDS011;4236;54.504;9.588;2023-09-19T09:14:58;27.17;;;25.30;;
8397;SDS011;4236;54.504;9.588;2023-09-19T09:17:26;29.27;;;27.10;;
8397;SDS011;4236;54.504;9.588;2023-09-19T09:19:54;28.00;;;26.40;;
8397;SDS011;4236;54.504;9.588;2023-09-19T09:22:25;27.57;;;25.73;;
8397;SDS011;4236;54.504;9.588;2023-09-19T09:24:53;28.30;;;26.67;;
8397;SDS011;4236;54.504;9.588;2023-09-19T09:27:24;28.47;;;26.57;;
8397;SDS011;4236;54.504;9.588;2023-09-19T09:29:52;27.10;;;25.07;;
8397;SDS011;4236;54.504;9.588;2023-09-19T09:32:22;28.17;;;26.10;;
8397;SDS011;4236;54.504;9.588;2023-09-19T09:34:52;27.67;;;25.67;;
8397;SDS011;4236;54.504;9.588;2023-09-19T09:37:28;26.13;;;24.63;;
8397;SDS011;4236;54.504;9.588;2023-09-19T09:39:58;26.40;;;24.20;;
8397;SDS011;4236;54.504;9.588;2023-09-19T09:42:45;26.57;;;24.70;;
8397;SDS011;4236;54.504;9.588;2023-09-19T09:45:16;27.47;;;25.60;;
8397;SDS011;4236;54.504;9.588;2023-09-19T09:47:46;27.23;;;25.13;;
8397;SDS011;4236;54.504;9.588;2023-09-19T09:50:24;24.70;;;23.40;;
8397;SDS011;4236;54.504;9.588;2023-09-19T09:52:58;26.47;;;24.37;;
8397;SDS011;4236;54.504;9.588;2023-09-19T09:55:56;26.10;;;24.00;;
8397;SDS011;4236;54.504;9.588;2023-09-19T09:58:26;24.30;;;22.80;;
8397;SDS011;4236;54.504;9.588;2023-09-19T10:00:56;25.53;;;24.10;;
8397;SDS011;4236;54.504;9.588;2023-09-19T10:03:32;23.43;;;22.03;;
8397;SDS011;4236;54.504;9.588;2023-09-19T10:06:06;24.10;;;22.30;;
8397;SDS011;4236;54.504;9.588;2023-09-19T10:09:00;23.00;;;21.40;;
8397;SDS011;4236;54.504;9.588;2023-09-19T10:11:38;24.03;;;22.80;;
8397;SDS011;4236;54.504;9.588;2023-09-19T10:14:09;23.50;;;22.10;;
8397;SDS011;4236;54.504;9.588;2023-09-19T10:16:40;21.53;;;19.83;;
8397;SDS011;4236;54.504;9.588;2023-09-19T10:19:15;20.70;;;19.30;;
8397;SDS011;4236;54.504;9.588;2023-09-19T10:21:48;20.90;;;19.40;;
8397;SDS011;4236;54.504;9.588;2023-09-19T10:24:19;20.80;;;19.50;;
8397;SDS011;4236;54.504;9.588;2023-09-19T10:26:51;20.87;;;19.47;;
8397;SDS011;4236;54.504;9.588;2023-09-19T10:29:19;20.47;;;19.33;;
8397;SDS011;4236;54.504;9.588;2023-09-19T10:31:48;21.17;;;19.77;;
8397;SDS011;4236;54.504;9.588;2023-09-19T10:34:19;20.30;;;18.80;;
8397;SDS011;4236;54.504;9.588;2023-09-19T10:36:49;19.87;;;18.57;;
8397;SDS011;4236;54.504;9.588;2023-09-19T10:39:20;20.73;;;19.07;;
8397;SDS011;4236;54.504;9.588;2023-09-19T10:41:50;18.30;;;17.00;;
8397;SDS011;4236;54.504;9.588;2023-09-19T10:44:25;17.60;;;16.10;;
8397;SDS011;4236;54.504;9.588;2023-09-19T10:46:54;17.57;;;16.23;;
8397;SDS011;4236;54.504;9.588;2023-09-19T10:49:23;15.83;;;14.43;;
8397;SDS011;4236;54.504;9.588;2023-09-19T10:51:53;14.70;;;13.60;;
8397;SDS011;4236;54.504;9.588;2023-09-19T10:54:26;13.00;;;11.90;;
8397;SDS011;4236;54.504;9.588;2023-09-19T10:56:58;12.43;;;10.97;;
8397;SDS011;4236;54.504;9.588;2023-09-19T10:59:27;11.40;;;10.27;;
8397;SDS011;4236;54.504;9.588;2023-09-19T11:02:15;12.07;;;11.00;;
8397;SDS011;4236;54.504;9.588;2023-09-19T11:04:45;11.60;;;10.80;;
8397;SDS011;4236;54.504;9.588;2023-09-19T11:07:14;11.80;;;10.70;;
8397;SDS011;4236;54.504;9.588;2023-09-19T11:09:47;9.67;;;8.77;;
8397;SDS011;4236;54.504;9.588;2023-09-19T11:21:40;13.10;;;10.53;;
8397;SDS011;4236;54.504;9.588;2023-09-19T11:27:10;11.70;;;9.70;;
8397;SDS011;4236;54.504;9.588;2023-09-19T11:29:40;11.33;;;10.33;;
8397;SDS011;4236;54.504;9.588;2023-09-19T11:32:08;21.73;;;9.53;;
8397;SDS011;4236;54.504;9.588;2023-09-19T11:34:40;10.13;;;8.70;;
8397;SDS011;4236;54.504;9.588;2023-09-19T11:40:37;13.73;;;9.10;;
8397;SDS011;4236;54.504;9.588;2023-09-19T11:46:06;11.03;;;9.60;;
8397;SDS011;4236;54.504;9.588;2023-09-19T11:48:35;9.63;;;8.80;;
8397;SDS011;4236;54.504;9.588;2023-09-19T11:51:12;13.03;;;9.30;;
8397;SDS011;4236;54.504;9.588;2023-09-19T11:53:49;9.67;;;8.73;;
8397;SDS011;4236;54.504;9.588;2023-09-19T11:56:18;13.20;;;8.40;;
8397;SDS011;4236;54.504;9.588;2023-09-19T11:58:50;12.57;;;9.00;;
8397;SDS011;4236;54.504;9.588;2023-09-19T12:01:21;11.23;;;8.73;;
8397;SDS011;4236;54.504;9.588;2023-09-19T12:03:52;9.27;;;8.23;;
8397;SDS011;4236;54.504;9.588;2023-09-19T12:06:23;9.43;;;8.73;;
8397;SDS011;4236;54.504;9.588;2023-09-19T12:08:52;10.50;;;7.87;;
8397;SDS011;4236;54.504;9.588;2023-09-19T12:11:21;12.70;;;8.50;;
8397;SDS011;4236;54.504;9.588;2023-09-19T12:13:51;11.83;;;7.73;;
8397;SDS011;4236;54.504;9.588;2023-09-19T12:16:20;11.57;;;7.90;;
8397;SDS011;4236;54.504;9.588;2023-09-19T12:18:51;10.60;;;7.13;;
8397;SDS011;4236;54.504;9.588;2023-09-19T12:21:24;8.43;;;7.70;;
8397;SDS011;4236;54.504;9.588;2023-09-19T12:23:57;13.70;;;8.80;;
8397;SDS011;4236;54.504;9.588;2023-09-19T12:26:26;10.03;;;8.17;;
8397;SDS011;4236;54.504;9.588;2023-09-19T12:28:56;10.83;;;8.20;;
8397;SDS011;4236;54.504;9.588;2023-09-19T12:31:25;11.50;;;8.13;;
8397;SDS011;4236;54.504;9.588;2023-09-19T12:33:53;8.53;;;7.47;;
8397;SDS011;4236;54.504;9.588;2023-09-19T12:36:22;8.53;;;7.80;;
8397;SDS011;4236;54.504;9.588;2023-09-19T12:38:55;11.37;;;8.00;;
8397;SDS011;4236;54.504;9.588;2023-09-19T12:41:25;9.17;;;7.23;;
8397;SDS011;4236;54.504;9.588;2023-09-19T12:43:53;9.63;;;8.50;;
8397;SDS011;4236;54.504;9.588;2023-09-19T12:46:23;9.07;;;8.37;;
8397;SDS011;4236;54.504;9.588;2023-09-19T12:51:45;11.97;;;8.50;;
8397;SDS011;4236;54.504;9.588;2023-09-19T12:54:13;8.60;;;7.40;;
8397;SDS011;4236;54.504;9.588;2023-09-19T12:56:43;8.87;;;7.40;;
8397;SDS011;4236;54.504;9.588;2023-09-19T12:59:12;10.33;;;7.73;;
8397;SDS011;4236;54.504;9.588;2023-09-19T13:01:42;11.30;;;8.50;;
8397;SDS011;4236;54.504;9.588;2023-09-19T13:04:13;8.37;;;7.77;;
8397;SDS011;4236;54.504;9.588;2023-09-19T13:06:44;8.80;;;7.50;;
8397;SDS011;4236;54.504;9.588;2023-09-19T13:09:15;12.53;;;8.03;;
8397;SDS011;4236;54.504;9.588;2023-09-19T13:11:43;9.50;;;7.07;;
8397;SDS011;4236;54.504;9.588;2023-09-19T13:14:15;7.43;;;6.70;;
8397;SDS011;4236;54.504;9.588;2023-09-19T13:16:56;10.43;;;7.50;;
8397;SDS011;4236;54.504;9.588;2023-09-19T13:19:36;12.30;;;7.67;;
8397;SDS011;4236;54.504;9.588;2023-09-19T13:25:06;8.63;;;7.50;;
8397;SDS011;4236;54.504;9.588;2023-09-19T13:27:40;12.50;;;7.90;;
8397;SDS011;4236;54.504;9.588;2023-09-19T13:30:09;9.93;;;7.90;;
8397;SDS011;4236;54.504;9.588;2023-09-19T13:32:39;10.30;;;7.70;;
8397;SDS011;4236;54.504;9.588;2023-09-19T13:35:09;11.63;;;7.30;;
8397;SDS011;4236;54.504;9.588;2023-09-19T13:37:38;11.13;;;8.50;;
8397;SDS011;4236;54.504;9.588;2023-09-19T13:40:09;12.97;;;10.00;;
8397;SDS011;4236;54.504;9.588;2023-09-19T13:42:37;10.27;;;8.53;;
8397;SDS011;4236;54.504;9.588;2023-09-19T13:45:06;14.53;;;7.40;;
8397;SDS011;4236;54.504;9.588;2023-09-19T13:47:38;10.37;;;8.07;;
8397;SDS011;4236;54.504;9.588;2023-09-19T13:50:08;17.90;;;7.97;;
8397;SDS011;4236;54.504;9.588;2023-09-19T13:52:36;12.63;;;8.67;;
8397;SDS011;4236;54.504;9.588;2023-09-19T13:55:05;9.60;;;7.80;;
8397;SDS011;4236;54.504;9.588;2023-09-19T13:57:33;8.77;;;7.90;;
8397;SDS011;4236;54.504;9.588;2023-09-19T14:00:01;10.93;;;6.97;;
8397;SDS011;4236;54.504;9.588;2023-09-19T14:02:31;10.87;;;7.90;;
8397;SDS011;4236;54.504;9.588;2023-09-19T14:05:00;8.67;;;7.77;;
8397;SDS011;4236;54.504;9.588;2023-09-19T14:07:28;13.20;;;8.40;;
8397;SDS011;4236;54.504;9.588;2023-09-19T14:09:56;9.93;;;8.93;;
8397;SDS011;4236;54.504;9.588;2023-09-19T14:12:24;9.17;;;7.60;;
8397;SDS011;4236;54.504;9.588;2023-09-19T14:14:51;16.13;;;9.30;;
8397;SDS011;4236;54.504;9.588;2023-09-19T14:17:22;14.03;;;9.20;;
8397;SDS011;4236;54.504;9.588;2023-09-19T14:19:52;10.17;;;9.27;;
8397;SDS011;4236;54.504;9.588;2023-09-19T14:22:21;14.43;;;9.27;;
8397;SDS011;4236;54.504;9.588;2023-09-19T14:24:48;12.23;;;8.73;;
8397;SDS011;4236;54.504;9.588;2023-09-19T14:27:16;10.07;;;8.90;;
8397;SDS011;4236;54.504;9.588;2023-09-19T14:29:44;19.47;;;10.33;;
8397;SDS011;4236;54.504;9.588;2023-09-19T14:32:11;11.97;;;8.60;;
8397;SDS011;4236;54.504;9.588;2023-09-19T14:34:39;11.43;;;8.87;;
8397;SDS011;4236;54.504;9.588;2023-09-19T14:37:09;9.30;;;8.60;;
8397;SDS011;4236;54.504;9.588;2023-09-19T14:39:38;9.77;;;7.70;;
8397;SDS011;4236;54.504;9.588;2023-09-19T14:42:11;9.17;;;8.30;;
8397;SDS011;4236;54.504;9.588;2023-09-19T14:44:39;9.47;;;8.70;;
8397;SDS011;4236;54.504;9.588;2023-09-19T14:47:06;10.40;;;9.30;;
8397;SDS011;4236;54.504;9.588;2023-09-19T14:49:34;13.20;;;8.80;;
8397;SDS011;4236;54.504;9.588;2023-09-19T14:52:07;15.60;;;8.10;;
8397;SDS011;4236;54.504;9.588;2023-09-19T14:54:35;8.57;;;7.77;;
8397;SDS011;4236;54.504;9.588;2023-09-19T14:57:05;9.27;;;8.37;;
8397;SDS011;4236;54.504;9.588;2023-09-19T14:59:35;10.70;;;8.03;;
8397;SDS011;4236;54.504;9.588;2023-09-19T15:02:04;11.17;;;8.50;;
8397;SDS011;4236;54.504;9.588;2023-09-19T15:04:32;9.43;;;8.57;;
8397;SDS011;4236;54.504;9.588;2023-09-19T15:07:01;10.67;;;8.00;;
8397;SDS011;4236;54.504;9.588;2023-09-19T15:09:29;9.70;;;8.17;;
8397;SDS011;4236;54.504;9.588;2023-09-19T15:11:59;9.07;;;8.10;;
8397;SDS011;4236;54.504;9.588;2023-09-19T15:14:28;13.13;;;8.60;;
8397;SDS011;4236;54.504;9.588;2023-09-19T15:16:56;9.00;;;8.20;;
8397;SDS011;4236;54.504;9.588;2023-09-19T15:19:24;8.43;;;7.07;;
8397;SDS011;4236;54.504;9.588;2023-09-19T15:21:52;8.60;;;7.80;;
8397;SDS011;4236;54.504;9.588;2023-09-19T15:24:20;9.13;;;7.87;;
8397;SDS011;4236;54.504;9.588;2023-09-19T15:26:49;9.50;;;8.60;;
8397;SDS011;4236;54.504;9.588;2023-09-19T15:29:17;12.43;;;7.83;;
8397;SDS011;4236;54.504;9.588;2023-09-19T15:31:47;10.83;;;7.90;;
8397;SDS011;4236;54.504;9.588;2023-09-19T15:34:17;9.27;;;8.40;;